To NAV CANADA Home Page Login to a new session Search on AWWS site Feedback and Comments Disclaimer Vers la page française équivalente Tips FAQ What's new on the site To the Forecasts and Observations / NOTAM section To "File a Flight Plan" website Publications and other links Update of the User's profile FIC Telephone Numbers My Weather Data Folder Route Weather Data Regional Weather Data Local Weather Data To the Forecasts and Observations / NOTAM section
Request Generated 06/26/2017 at 03:30:06 UTC . Weather information available at that time is displayed.

METAR/TAF

HIGH LEVEL/AB    (show WxCam)

METAR CYOJ 260300Z 12009KT 15SM BKN280 25/05 A2980 RMK CI5 SLP097
DENSITY ALT 2700FT=
METAR CYOJ 260200Z 12011G18KT 100V160 15SM SCT260 26/06 A2982 RMK CI3
SLP104 DENSITY ALT 2800FT=
METAR CYOJ 260100Z 13012G18KT 15SM SCT260 27/06 A2985 RMK CI4 SLP114
DENSITY ALT 2900FT=

TAF CYOJ 260038Z 2601/2613 12012G22KT P6SM FEW090 SCT140 BKN250
FM261000 12010KT P6SM VCSH BKN060
RMK NXT FCST BY 260700Z=
Your time UTC time
Weather data provided by Environment Canada and NAV CANADA